Callander, Canada
Current Conditions -  °F | °C
As of 4:00 AM on Saturday 22 Nov 2014 (Local Time) from CYYB Reporting Station
Overcast Overcast  
Wind Chill: -10°   Ceiling: 1200
Heat Index: -3°   Visibility: 9mi
Dew Point: -4°   Wind: 17mph
Humidity: 93%   Direction: 220°SW
Pressure: 29.97"   Gusts: 31mph
Location:  46.22°N, 79.36°W
Report Text: CYYB 220900Z AUTO 22015G27KT 9SM OVC012 M03/M04 A2997 RMK SLP171
Loading
Personal Weather Stations






























Interactive Weather Map New forecast layout! Learn more

10-Day Weather Forecast

Advertisements
Track Severe Weather on mobile